sensor_id;sensor_type;location;lat;lon;timestamp;temperature;humidity
59282;DHT22;45054;52.062;10.010;2023-07-22T00:00:45;15.00;99.90
59282;DHT22;45054;52.062;10.010;2023-07-22T00:03:11;15.00;99.90
59282;DHT22;45054;52.062;10.010;2023-07-22T00:05:37;14.90;99.90
59282;DHT22;45054;52.062;10.010;2023-07-22T00:08:03;14.90;99.90
59282;DHT22;45054;52.062;10.010;2023-07-22T00:10:29;14.90;99.90
59282;DHT22;45054;52.062;10.010;2023-07-22T00:12:54;14.80;99.90
59282;DHT22;45054;52.062;10.010;2023-07-22T00:15:20;14.80;99.90
59282;DHT22;45054;52.062;10.010;2023-07-22T00:17:46;14.80;99.90
59282;DHT22;45054;52.062;10.010;2023-07-22T00:20:12;14.80;99.90
59282;DHT22;45054;52.062;10.010;2023-07-22T00:22:39;14.80;99.90
59282;DHT22;45054;52.062;10.010;2023-07-22T00:25:04;14.80;99.90
59282;DHT22;45054;52.062;10.010;2023-07-22T00:27:30;14.80;99.90
59282;DHT22;45054;52.062;10.010;2023-07-22T00:29:55;14.70;99.90
59282;DHT22;45054;52.062;10.010;2023-07-22T00:32:21;14.70;99.90
59282;DHT22;45054;52.062;10.010;2023-07-22T00:34:46;14.60;99.90
59282;DHT22;45054;52.062;10.010;2023-07-22T00:37:12;14.50;99.90
59282;DHT22;45054;52.062;10.010;2023-07-22T00:39:39;14.50;99.90
59282;DHT22;45054;52.062;10.010;2023-07-22T00:42:04;14.40;99.90
59282;DHT22;45054;52.062;10.010;2023-07-22T00:44:30;14.40;99.90
59282;DHT22;45054;52.062;10.010;2023-07-22T00:46:56;14.30;99.90
59282;DHT22;45054;52.062;10.010;2023-07-22T00:49:22;14.30;99.90
59282;DHT22;45054;52.062;10.010;2023-07-22T00:51:48;14.30;99.90
59282;DHT22;45054;52.062;10.010;2023-07-22T00:54:13;14.30;99.90
59282;DHT22;45054;52.062;10.010;2023-07-22T00:56:40;14.40;99.90
59282;DHT22;45054;52.062;10.010;2023-07-22T00:59:06;14.40;99.90
59282;DHT22;45054;52.062;10.010;2023-07-22T01:01:31;14.40;99.90
59282;DHT22;45054;52.062;10.010;2023-07-22T01:03:57;14.30;99.90
59282;DHT22;45054;52.062;10.010;2023-07-22T01:06:22;14.30;99.90
59282;DHT22;45054;52.062;10.010;2023-07-22T01:08:48;14.30;99.90
59282;DHT22;45054;52.062;10.010;2023-07-22T01:11:14;14.20;99.90
59282;DHT22;45054;52.062;10.010;2023-07-22T01:13:40;14.10;99.90
59282;DHT22;45054;52.062;10.010;2023-07-22T01:16:06;14.10;99.90
59282;DHT22;45054;52.062;10.010;2023-07-22T01:18:32;14.20;99.90
59282;DHT22;45054;52.062;10.010;2023-07-22T01:20:57;14.20;99.90
59282;DHT22;45054;52.062;10.010;2023-07-22T01:23:24;14.20;99.90
59282;DHT22;45054;52.062;10.010;2023-07-22T01:25:50;14.10;99.90
59282;DHT22;45054;52.062;10.010;2023-07-22T01:28:15;14.10;99.90
59282;DHT22;45054;52.062;10.010;2023-07-22T01:30:41;14.00;99.90
59282;DHT22;45054;52.062;10.010;2023-07-22T01:33:06;14.10;99.90
59282;DHT22;45054;52.062;10.010;2023-07-22T01:35:32;14.00;99.90
59282;DHT22;45054;52.062;10.010;2023-07-22T01:37:57;14.00;99.90
59282;DHT22;45054;52.062;10.010;2023-07-22T01:40:24;14.10;99.90
59282;DHT22;45054;52.062;10.010;2023-07-22T01:42:50;14.10;99.90
59282;DHT22;45054;52.062;10.010;2023-07-22T01:45:15;14.10;99.90
59282;DHT22;45054;52.062;10.010;2023-07-22T01:47:41;14.10;99.90
59282;DHT22;45054;52.062;10.010;2023-07-22T01:50:06;14.10;99.90
59282;DHT22;45054;52.062;10.010;2023-07-22T01:52:32;14.10;99.90
59282;DHT22;45054;52.062;10.010;2023-07-22T01:54:58;14.10;99.90
59282;DHT22;45054;52.062;10.010;2023-07-22T01:57:24;14.00;99.90
59282;DHT22;45054;52.062;10.010;2023-07-22T01:59:50;13.90;99.90
59282;DHT22;45054;52.062;10.010;2023-07-22T02:02:15;13.90;99.90
59282;DHT22;45054;52.062;10.010;2023-07-22T02:04:41;13.90;99.90
59282;DHT22;45054;52.062;10.010;2023-07-22T02:07:06;13.90;99.90
59282;DHT22;45054;52.062;10.010;2023-07-22T02:09:32;13.90;99.90
59282;DHT22;45054;52.062;10.010;2023-07-22T02:11:57;13.90;99.90
59282;DHT22;45054;52.062;10.010;2023-07-22T02:14:24;14.00;99.90
59282;DHT22;45054;52.062;10.010;2023-07-22T02:16:50;13.90;99.90
59282;DHT22;45054;52.062;10.010;2023-07-22T02:19:15;14.00;99.90
59282;DHT22;45054;52.062;10.010;2023-07-22T02:21:41;13.90;99.90
59282;DHT22;45054;52.062;10.010;2023-07-22T02:24:07;13.90;99.90
59282;DHT22;45054;52.062;10.010;2023-07-22T02:26:32;13.90;99.90
59282;DHT22;45054;52.062;10.010;2023-07-22T02:28:57;13.90;99.90
59282;DHT22;45054;52.062;10.010;2023-07-22T02:31:24;13.80;99.90
59282;DHT22;45054;52.062;10.010;2023-07-22T02:33:50;13.80;99.90
59282;DHT22;45054;52.062;10.010;2023-07-22T02:36:15;13.90;99.90
59282;DHT22;45054;52.062;10.010;2023-07-22T02:38:41;13.90;99.90
59282;DHT22;45054;52.062;10.010;2023-07-22T02:41:07;13.90;99.90
59282;DHT22;45054;52.062;10.010;2023-07-22T02:43:33;13.90;99.90
59282;DHT22;45054;52.062;10.010;2023-07-22T02:45:59;13.90;99.90
59282;DHT22;45054;52.062;10.010;2023-07-22T02:48:26;13.90;99.90
59282;DHT22;45054;52.062;10.010;2023-07-22T02:50:51;13.90;99.90
59282;DHT22;45054;52.062;10.010;2023-07-22T02:53:17;14.00;99.90
59282;DHT22;45054;52.062;10.010;2023-07-22T02:55:42;14.00;99.90
59282;DHT22;45054;52.062;10.010;2023-07-22T02:58:08;14.00;99.90
59282;DHT22;45054;52.062;10.010;2023-07-22T03:00:33;14.00;99.90
59282;DHT22;45054;52.062;10.010;2023-07-22T03:02:59;14.00;99.90
59282;DHT22;45054;52.062;10.010;2023-07-22T03:05:26;14.00;99.90
59282;DHT22;45054;52.062;10.010;2023-07-22T03:07:51;14.00;99.90
59282;DHT22;45054;52.062;10.010;2023-07-22T03:10:17;14.00;99.90
59282;DHT22;45054;52.062;10.010;2023-07-22T03:12:42;13.90;99.90
59282;DHT22;45054;52.062;10.010;2023-07-22T03:15:08;13.80;99.90
59282;DHT22;45054;52.062;10.010;2023-07-22T03:17:34;13.90;99.90
59282;DHT22;45054;52.062;10.010;2023-07-22T03:19:59;13.80;99.90
59282;DHT22;45054;52.062;10.010;2023-07-22T03:22:26;13.80;99.90
59282;DHT22;45054;52.062;10.010;2023-07-22T03:24:51;13.80;99.90
59282;DHT22;45054;52.062;10.010;2023-07-22T03:27:17;13.80;99.90
59282;DHT22;45054;52.062;10.010;2023-07-22T03:29:42;13.80;99.90
59282;DHT22;45054;52.062;10.010;2023-07-22T03:32:08;13.80;99.90
59282;DHT22;45054;52.062;10.010;2023-07-22T03:34:34;13.70;99.90
59282;DHT22;45054;52.062;10.010;2023-07-22T03:37:00;13.60;99.90
59282;DHT22;45054;52.062;10.010;2023-07-22T03:39:26;13.50;99.90
59282;DHT22;45054;52.062;10.010;2023-07-22T03:41:52;13.50;99.90
59282;DHT22;45054;52.062;10.010;2023-07-22T03:44:17;13.50;99.90
59282;DHT22;45054;52.062;10.010;2023-07-22T03:46:43;13.50;99.90
59282;DHT22;45054;52.062;10.010;2023-07-22T03:49:08;13.50;99.90
59282;DHT22;45054;52.062;10.010;2023-07-22T03:51:34;13.50;99.90
59282;DHT22;45054;52.062;10.010;2023-07-22T03:53:59;13.40;99.90
59282;DHT22;45054;52.062;10.010;2023-07-22T03:56:26;13.50;99.90
59282;DHT22;45054;52.062;10.010;2023-07-22T03:58:52;13.40;99.90
59282;DHT22;45054;52.062;10.010;2023-07-22T04:01:17;13.50;99.90
59282;DHT22;45054;52.062;10.010;2023-07-22T04:03:43;13.50;99.90
59282;DHT22;45054;52.062;10.010;2023-07-22T04:06:08;13.40;99.90
59282;DHT22;45054;52.062;10.010;2023-07-22T04:08:34;13.50;99.90
59282;DHT22;45054;52.062;10.010;2023-07-22T04:10:59;13.40;99.90
59282;DHT22;45054;52.062;10.010;2023-07-22T04:13:26;13.50;99.90
59282;DHT22;45054;52.062;10.010;2023-07-22T04:15:52;13.50;99.90
59282;DHT22;45054;52.062;10.010;2023-07-22T04:18:18;13.50;99.90
59282;DHT22;45054;52.062;10.010;2023-07-22T04:20:43;13.50;99.90
59282;DHT22;45054;52.062;10.010;2023-07-22T04:23:09;13.50;99.90
59282;DHT22;45054;52.062;10.010;2023-07-22T04:25:38;13.50;99.90
59282;DHT22;45054;52.062;10.010;2023-07-22T04:28:03;13.50;99.90
59282;DHT22;45054;52.062;10.010;2023-07-22T04:30:30;13.50;99.90
59282;DHT22;45054;52.062;10.010;2023-07-22T04:32:56;13.60;99.90
59282;DHT22;45054;52.062;10.010;2023-07-22T04:35:21;13.60;99.90
59282;DHT22;45054;52.062;10.010;2023-07-22T04:37:46;13.60;99.90
59282;DHT22;45054;52.062;10.010;2023-07-22T04:40:12;13.50;99.90
59282;DHT22;45054;52.062;10.010;2023-07-22T04:42:37;13.50;99.90
59282;DHT22;45054;52.062;10.010;2023-07-22T04:45:03;13.40;99.90
59282;DHT22;45054;52.062;10.010;2023-07-22T04:47:30;13.50;99.90
59282;DHT22;45054;52.062;10.010;2023-07-22T04:49:56;13.50;99.90
59282;DHT22;45054;52.062;10.010;2023-07-22T04:52:21;13.50;99.90
59282;DHT22;45054;52.062;10.010;2023-07-22T04:54:46;13.50;99.90
59282;DHT22;45054;52.062;10.010;2023-07-22T04:57:12;13.50;99.90
59282;DHT22;45054;52.062;10.010;2023-07-22T04:59:37;13.50;99.90
59282;DHT22;45054;52.062;10.010;2023-07-22T05:02:03;13.50;99.90
59282;DHT22;45054;52.062;10.010;2023-07-22T05:04:30;13.60;99.90
59282;DHT22;45054;52.062;10.010;2023-07-22T05:06:55;13.60;99.90
59282;DHT22;45054;52.062;10.010;2023-07-22T05:09:21;13.70;99.90
59282;DHT22;45054;52.062;10.010;2023-07-22T05:11:46;13.70;99.90
59282;DHT22;45054;52.062;10.010;2023-07-22T05:14:12;13.80;99.90
59282;DHT22;45054;52.062;10.010;2023-07-22T05:16:37;13.70;99.90
59282;DHT22;45054;52.062;10.010;2023-07-22T05:19:02;13.70;99.90
59282;DHT22;45054;52.062;10.010;2023-07-22T05:21:29;13.70;99.90
59282;DHT22;45054;52.062;10.010;2023-07-22T05:23:55;13.70;99.90
59282;DHT22;45054;52.062;10.010;2023-07-22T05:26:20;13.80;99.90
59282;DHT22;45054;52.062;10.010;2023-07-22T05:28:46;13.80;99.90
59282;DHT22;45054;52.062;10.010;2023-07-22T05:31:11;13.80;99.90
59282;DHT22;45054;52.062;10.010;2023-07-22T05:33:37;13.90;99.90
59282;DHT22;45054;52.062;10.010;2023-07-22T05:36:02;13.90;99.90
59282;DHT22;45054;52.062;10.010;2023-07-22T05:38:29;14.00;99.90
59282;DHT22;45054;52.062;10.010;2023-07-22T05:40:55;14.10;99.90
59282;DHT22;45054;52.062;10.010;2023-07-22T05:43:20;14.10;99.90
59282;DHT22;45054;52.062;10.010;2023-07-22T05:45:48;14.10;99.90
59282;DHT22;45054;52.062;10.010;2023-07-22T05:48:13;14.10;99.90
59282;DHT22;45054;52.062;10.010;2023-07-22T05:50:39;14.20;99.90
59282;DHT22;45054;52.062;10.010;2023-07-22T05:53:05;14.20;99.90
59282;DHT22;45054;52.062;10.010;2023-07-22T05:55:31;14.30;99.90
59282;DHT22;45054;52.062;10.010;2023-07-22T05:57:57;14.40;99.90
59282;DHT22;45054;52.062;10.010;2023-07-22T06:00:22;14.40;99.90
59282;DHT22;45054;52.062;10.010;2023-07-22T06:02:48;14.40;99.90
59282;DHT22;45054;52.062;10.010;2023-07-22T06:05:13;14.50;99.90
59282;DHT22;45054;52.062;10.010;2023-07-22T06:07:39;14.60;99.90
59282;DHT22;45054;52.062;10.010;2023-07-22T06:10:05;14.60;99.90
59282;DHT22;45054;52.062;10.010;2023-07-22T06:12:32;14.70;99.90
59282;DHT22;45054;52.062;10.010;2023-07-22T06:14:57;14.60;99.90
59282;DHT22;45054;52.062;10.010;2023-07-22T06:17:23;14.60;99.90
59282;DHT22;45054;52.062;10.010;2023-07-22T06:19:48;14.70;99.90
59282;DHT22;45054;52.062;10.010;2023-07-22T06:22:14;14.70;99.90
59282;DHT22;45054;52.062;10.010;2023-07-22T06:24:39;14.70;99.90
59282;DHT22;45054;52.062;10.010;2023-07-22T06:27:05;14.80;99.90
59282;DHT22;45054;52.062;10.010;2023-07-22T06:29:31;14.90;99.90
59282;DHT22;45054;52.062;10.010;2023-07-22T06:31:57;15.00;99.90
59282;DHT22;45054;52.062;10.010;2023-07-22T06:34:22;15.00;99.90
59282;DHT22;45054;52.062;10.010;2023-07-22T06:36:48;15.10;99.90
59282;DHT22;45054;52.062;10.010;2023-07-22T06:39:13;15.20;99.90
59282;DHT22;45054;52.062;10.010;2023-07-22T06:41:39;15.20;99.90
59282;DHT22;45054;52.062;10.010;2023-07-22T06:44:04;15.20;99.90
59282;DHT22;45054;52.062;10.010;2023-07-22T06:46:31;15.10;99.90
59282;DHT22;45054;52.062;10.010;2023-07-22T06:48:56;15.10;99.90
59282;DHT22;45054;52.062;10.010;2023-07-22T06:51:22;15.00;99.90
59282;DHT22;45054;52.062;10.010;2023-07-22T06:53:47;15.00;99.90
59282;DHT22;45054;52.062;10.010;2023-07-22T06:56:13;15.10;99.90
59282;DHT22;45054;52.062;10.010;2023-07-22T06:58:38;15.10;99.90
59282;DHT22;45054;52.062;10.010;2023-07-22T07:01:04;15.00;99.90
59282;DHT22;45054;52.062;10.010;2023-07-22T07:03:30;15.10;99.90
59282;DHT22;45054;52.062;10.010;2023-07-22T07:05:56;15.10;99.90
59282;DHT22;45054;52.062;10.010;2023-07-22T07:08:22;15.10;99.90
59282;DHT22;45054;52.062;10.010;2023-07-22T07:10:48;15.10;99.90
59282;DHT22;45054;52.062;10.010;2023-07-22T07:13:13;15.20;99.90
59282;DHT22;45054;52.062;10.010;2023-07-22T07:15:39;15.30;99.90
59282;DHT22;45054;52.062;10.010;2023-07-22T07:18:04;15.30;99.90
59282;DHT22;45054;52.062;10.010;2023-07-22T07:20:31;15.30;99.90
59282;DHT22;45054;52.062;10.010;2023-07-22T07:22:56;15.20;99.90
59282;DHT22;45054;52.062;10.010;2023-07-22T07:25:22;15.10;99.90
59282;DHT22;45054;52.062;10.010;2023-07-22T07:27:47;15.00;99.90
59282;DHT22;45054;52.062;10.010;2023-07-22T07:30:13;14.90;99.90
59282;DHT22;45054;52.062;10.010;2023-07-22T07:32:38;14.90;99.90
59282;DHT22;45054;52.062;10.010;2023-07-22T07:35:04;15.00;99.90
59282;DHT22;45054;52.062;10.010;2023-07-22T07:37:31;15.20;99.90
59282;DHT22;45054;52.062;10.010;2023-07-22T07:39:57;15.30;99.90
59282;DHT22;45054;52.062;10.010;2023-07-22T07:42:22;15.40;99.90
59282;DHT22;45054;52.062;10.010;2023-07-22T07:44:48;15.60;99.90
59282;DHT22;45054;52.062;10.010;2023-07-22T07:47:13;15.70;99.90
59282;DHT22;45054;52.062;10.010;2023-07-22T07:49:39;15.90;99.90
59282;DHT22;45054;52.062;10.010;2023-07-22T07:52:04;16.00;99.90
59282;DHT22;45054;52.062;10.010;2023-07-22T07:54:31;16.10;99.90
59282;DHT22;45054;52.062;10.010;2023-07-22T07:56:57;16.10;99.90
59282;DHT22;45054;52.062;10.010;2023-07-22T07:59:22;16.10;99.90
59282;DHT22;45054;52.062;10.010;2023-07-22T08:01:48;16.10;99.90
59282;DHT22;45054;52.062;10.010;2023-07-22T08:04:13;16.20;99.90
59282;DHT22;45054;52.062;10.010;2023-07-22T08:06:39;16.20;99.90
59282;DHT22;45054;52.062;10.010;2023-07-22T08:09:04;16.20;99.90
59282;DHT22;45054;52.062;10.010;2023-07-22T08:11:31;16.30;99.90
59282;DHT22;45054;52.062;10.010;2023-07-22T08:13:56;16.50;99.90
59282;DHT22;45054;52.062;10.010;2023-07-22T08:16:22;16.50;99.90
59282;DHT22;45054;52.062;10.010;2023-07-22T08:18:47;16.60;99.90
59282;DHT22;45054;52.062;10.010;2023-07-22T08:21:13;16.60;99.90
59282;DHT22;45054;52.062;10.010;2023-07-22T08:23:38;16.50;99.90
59282;DHT22;45054;52.062;10.010;2023-07-22T08:26:04;16.40;99.90
59282;DHT22;45054;52.062;10.010;2023-07-22T08:28:31;16.40;99.90
59282;DHT22;45054;52.062;10.010;2023-07-22T08:30:57;16.30;99.90
59282;DHT22;45054;52.062;10.010;2023-07-22T08:33:22;16.20;99.90
59282;DHT22;45054;52.062;10.010;2023-07-22T08:35:48;16.20;99.90
59282;DHT22;45054;52.062;10.010;2023-07-22T08:38:14;16.10;99.90
59282;DHT22;45054;52.062;10.010;2023-07-22T08:40:39;16.10;99.90
59282;DHT22;45054;52.062;10.010;2023-07-22T08:43:06;16.10;99.90
59282;DHT22;45054;52.062;10.010;2023-07-22T08:45:34;15.90;99.90
59282;DHT22;45054;52.062;10.010;2023-07-22T08:47:59;16.00;99.90
59282;DHT22;45054;52.062;10.010;2023-07-22T08:50:29;16.00;99.90
59282;DHT22;45054;52.062;10.010;2023-07-22T08:52:54;16.10;99.90
59282;DHT22;45054;52.062;10.010;2023-07-22T08:55:20;16.10;99.90
59282;DHT22;45054;52.062;10.010;2023-07-22T08:57:46;16.20;99.90
59282;DHT22;45054;52.062;10.010;2023-07-22T09:00:12;16.20;99.90
59282;DHT22;45054;52.062;10.010;2023-07-22T09:02:39;16.30;99.90
59282;DHT22;45054;52.062;10.010;2023-07-22T09:05:05;16.50;99.90
59282;DHT22;45054;52.062;10.010;2023-07-22T09:07:31;16.50;99.90
59282;DHT22;45054;52.062;10.010;2023-07-22T09:09:56;16.60;99.90
59282;DHT22;45054;52.062;10.010;2023-07-22T09:12:22;16.60;99.90
59282;DHT22;45054;52.062;10.010;2023-07-22T09:14:47;16.60;99.90
59282;DHT22;45054;52.062;10.010;2023-07-22T09:17:13;16.70;99.90
59282;DHT22;45054;52.062;10.010;2023-07-22T09:19:40;16.80;99.90
59282;DHT22;45054;52.062;10.010;2023-07-22T09:22:06;17.00;99.90
59282;DHT22;45054;52.062;10.010;2023-07-22T09:24:32;17.10;99.90
59282;DHT22;45054;52.062;10.010;2023-07-22T09:26:58;17.20;99.90
59282;DHT22;45054;52.062;10.010;2023-07-22T09:29:32;17.30;99.90
59282;DHT22;45054;52.062;10.010;2023-07-22T09:31:57;17.30;99.90
59282;DHT22;45054;52.062;10.010;2023-07-22T09:34:23;17.30;99.90
59282;DHT22;45054;52.062;10.010;2023-07-22T09:36:51;17.20;99.90
59282;DHT22;45054;52.062;10.010;2023-07-22T09:39:16;17.10;99.90
59282;DHT22;45054;52.062;10.010;2023-07-22T09:41:42;17.00;99.90
59282;DHT22;45054;52.062;10.010;2023-07-22T09:44:08;17.10;99.90
59282;DHT22;45054;52.062;10.010;2023-07-22T09:46:34;17.20;99.90
59282;DHT22;45054;52.062;10.010;2023-07-22T09:49:02;17.30;99.90
59282;DHT22;45054;52.062;10.010;2023-07-22T09:51:31;17.50;99.90
59282;DHT22;45054;52.062;10.010;2023-07-22T09:54:00;17.60;99.90
59282;DHT22;45054;52.062;10.010;2023-07-22T09:56:26;17.80;99.90
59282;DHT22;45054;52.062;10.010;2023-07-22T09:58:52;17.70;99.90
59282;DHT22;45054;52.062;10.010;2023-07-22T10:01:18;17.70;99.90
59282;DHT22;45054;52.062;10.010;2023-07-22T10:03:44;17.70;99.90
59282;DHT22;45054;52.062;10.010;2023-07-22T10:06:10;17.60;99.90
59282;DHT22;45054;52.062;10.010;2023-07-22T10:08:36;17.50;99.90
59282;DHT22;45054;52.062;10.010;2023-07-22T10:11:03;17.60;99.90
59282;DHT22;45054;52.062;10.010;2023-07-22T10:13:30;17.70;99.90
59282;DHT22;45054;52.062;10.010;2023-07-22T10:15:56;17.90;99.90
59282;DHT22;45054;52.062;10.010;2023-07-22T10:18:22;18.00;99.90
59282;DHT22;45054;52.062;10.010;2023-07-22T10:20:48;18.20;99.90
59282;DHT22;45054;52.062;10.010;2023-07-22T10:23:13;18.50;99.90
59282;DHT22;45054;52.062;10.010;2023-07-22T10:25:39;18.60;99.90
59282;DHT22;45054;52.062;10.010;2023-07-22T10:28:07;18.70;99.90
59282;DHT22;45054;52.062;10.010;2023-07-22T10:30:32;18.70;99.90
59282;DHT22;45054;52.062;10.010;2023-07-22T10:32:58;18.70;99.90
59282;DHT22;45054;52.062;10.010;2023-07-22T10:35:34;18.70;99.90
59282;DHT22;45054;52.062;10.010;2023-07-22T10:38:08;18.70;99.90
59282;DHT22;45054;52.062;10.010;2023-07-22T10:40:36;18.50;99.90
59282;DHT22;45054;52.062;10.010;2023-07-22T10:43:10;18.50;99.90
59282;DHT22;45054;52.062;10.010;2023-07-22T10:45:39;18.40;99.90
59282;DHT22;45054;52.062;10.010;2023-07-22T10:48:06;18.50;99.90
59282;DHT22;45054;52.062;10.010;2023-07-22T10:50:37;18.50;99.90
59282;DHT22;45054;52.062;10.010;2023-07-22T10:53:03;18.50;99.90
59282;DHT22;45054;52.062;10.010;2023-07-22T10:55:29;18.40;99.90
59282;DHT22;45054;52.062;10.010;2023-07-22T10:57:54;18.20;99.90
59282;DHT22;45054;52.062;10.010;2023-07-22T11:00:21;18.10;99.90
59282;DHT22;45054;52.062;10.010;2023-07-22T11:02:47;18.20;99.90
59282;DHT22;45054;52.062;10.010;2023-07-22T11:05:13;18.30;99.90
59282;DHT22;45054;52.062;10.010;2023-07-22T11:07:42;18.50;99.90
59282;DHT22;45054;52.062;10.010;2023-07-22T11:10:13;18.60;99.90
59282;DHT22;45054;52.062;10.010;2023-07-22T11:12:38;18.70;99.90
59282;DHT22;45054;52.062;10.010;2023-07-22T11:15:04;18.90;99.90
59282;DHT22;45054;52.062;10.010;2023-07-22T11:17:31;19.10;99.90
59282;DHT22;45054;52.062;10.010;2023-07-22T11:19:58;19.10;99.90
59282;DHT22;45054;52.062;10.010;2023-07-22T11:22:23;19.30;99.90
59282;DHT22;45054;52.062;10.010;2023-07-22T11:24:49;19.20;99.90
59282;DHT22;45054;52.062;10.010;2023-07-22T11:27:14;19.10;99.90
59282;DHT22;45054;52.062;10.010;2023-07-22T11:29:40;19.10;99.90
59282;DHT22;45054;52.062;10.010;2023-07-22T11:32:06;19.20;99.90
59282;DHT22;45054;52.062;10.010;2023-07-22T11:34:33;19.20;99.90
59282;DHT22;45054;52.062;10.010;2023-07-22T11:36:58;19.30;99.90
59282;DHT22;45054;52.062;10.010;2023-07-22T11:39:25;19.40;99.90
59282;DHT22;45054;52.062;10.010;2023-07-22T11:41:50;19.50;99.90
59282;DHT22;45054;52.062;10.010;2023-07-22T11:44:17;19.50;99.90
59282;DHT22;45054;52.062;10.010;2023-07-22T11:46:49;19.40;99.90
59282;DHT22;45054;52.062;10.010;2023-07-22T11:49:22;19.30;99.90
59282;DHT22;45054;52.062;10.010;2023-07-22T11:51:49;19.30;99.90
59282;DHT22;45054;52.062;10.010;2023-07-22T11:54:14;19.30;99.90
59282;DHT22;45054;52.062;10.010;2023-07-22T11:56:40;19.40;99.90
59282;DHT22;45054;52.062;10.010;2023-07-22T11:59:05;19.50;99.90
59282;DHT22;45054;52.062;10.010;2023-07-22T12:01:32;19.70;99.90
59282;DHT22;45054;52.062;10.010;2023-07-22T12:03:57;19.80;99.90
59282;DHT22;45054;52.062;10.010;2023-07-22T12:06:24;19.90;99.90
59282;DHT22;45054;52.062;10.010;2023-07-22T12:08:51;20.00;99.90
59282;DHT22;45054;52.062;10.010;2023-07-22T12:11:17;20.00;99.90
59282;DHT22;45054;52.062;10.010;2023-07-22T12:13:43;20.10;99.90
59282;DHT22;45054;52.062;10.010;2023-07-22T12:16:08;20.20;99.90
59282;DHT22;45054;52.062;10.010;2023-07-22T12:18:43;20.40;99.90
59282;DHT22;45054;52.062;10.010;2023-07-22T12:21:08;20.50;99.90
59282;DHT22;45054;52.062;10.010;2023-07-22T12:23:34;20.50;99.90
59282;DHT22;45054;52.062;10.010;2023-07-22T12:26:00;20.50;99.90
59282;DHT22;45054;52.062;10.010;2023-07-22T12:28:26;20.40;99.90
59282;DHT22;45054;52.062;10.010;2023-07-22T12:30:51;20.40;99.90
59282;DHT22;45054;52.062;10.010;2023-07-22T12:33:17;20.30;99.90
59282;DHT22;45054;52.062;10.010;2023-07-22T12:35:42;20.20;99.90
59282;DHT22;45054;52.062;10.010;2023-07-22T12:38:08;19.90;99.90
59282;DHT22;45054;52.062;10.010;2023-07-22T12:40:33;19.70;99.90
59282;DHT22;45054;52.062;10.010;2023-07-22T12:43:00;19.60;99.90
59282;DHT22;45054;52.062;10.010;2023-07-22T12:45:25;19.50;99.90
59282;DHT22;45054;52.062;10.010;2023-07-22T12:47:51;19.50;99.90
59282;DHT22;45054;52.062;10.010;2023-07-22T12:50:16;19.50;99.90
59282;DHT22;45054;52.062;10.010;2023-07-22T12:52:42;19.70;99.90
59282;DHT22;45054;52.062;10.010;2023-07-22T12:55:07;19.90;99.90
59282;DHT22;45054;52.062;10.010;2023-07-22T12:57:33;20.30;99.90
59282;DHT22;45054;52.062;10.010;2023-07-22T13:00:00;20.50;99.90
59282;DHT22;45054;52.062;10.010;2023-07-22T13:02:25;20.60;99.90
59282;DHT22;45054;52.062;10.010;2023-07-22T13:04:51;20.70;99.90
59282;DHT22;45054;52.062;10.010;2023-07-22T13:07:16;20.60;99.90
59282;DHT22;45054;52.062;10.010;2023-07-22T13:09:42;20.60;99.90
59282;DHT22;45054;52.062;10.010;2023-07-22T13:12:07;20.50;99.90
59282;DHT22;45054;52.062;10.010;2023-07-22T13:14:33;20.50;99.90
59282;DHT22;45054;52.062;10.010;2023-07-22T13:17:00;20.50;99.90
59282;DHT22;45054;52.062;10.010;2023-07-22T13:19:25;20.50;99.90
59282;DHT22;45054;52.062;10.010;2023-07-22T13:21:51;20.50;99.90
59282;DHT22;45054;52.062;10.010;2023-07-22T13:24:16;20.50;99.90
59282;DHT22;45054;52.062;10.010;2023-07-22T13:26:41;20.40;99.90
59282;DHT22;45054;52.062;10.010;2023-07-22T13:29:07;20.20;99.90
59282;DHT22;45054;52.062;10.010;2023-07-22T13:31:33;20.10;99.90
59282;DHT22;45054;52.062;10.010;2023-07-22T13:34:00;20.00;99.90
59282;DHT22;45054;52.062;10.010;2023-07-22T13:36:25;19.90;99.90
59282;DHT22;45054;52.062;10.010;2023-07-22T13:38:51;19.80;99.90
59282;DHT22;45054;52.062;10.010;2023-07-22T13:41:16;19.80;99.90
59282;DHT22;45054;52.062;10.010;2023-07-22T13:43:42;19.80;99.90
59282;DHT22;45054;52.062;10.010;2023-07-22T13:46:07;19.90;99.90
59282;DHT22;45054;52.062;10.010;2023-07-22T13:48:33;20.10;99.90
59282;DHT22;45054;52.062;10.010;2023-07-22T13:50:59;20.20;99.90
59282;DHT22;45054;52.062;10.010;2023-07-22T13:53:25;20.50;99.90
59282;DHT22;45054;52.062;10.010;2023-07-22T13:55:50;20.90;99.90
59282;DHT22;45054;52.062;10.010;2023-07-22T13:58:16;21.20;99.90
59282;DHT22;45054;52.062;10.010;2023-07-22T14:00:41;21.60;99.90
59282;DHT22;45054;52.062;10.010;2023-07-22T14:03:07;22.10;99.90
59282;DHT22;45054;52.062;10.010;2023-07-22T14:05:32;22.10;99.90
59282;DHT22;45054;52.062;10.010;2023-07-22T14:07:59;22.00;99.90
59282;DHT22;45054;52.062;10.010;2023-07-22T14:10:24;22.10;99.90
59282;DHT22;45054;52.062;10.010;2023-07-22T14:12:50;22.10;99.90
59282;DHT22;45054;52.062;10.010;2023-07-22T14:15:15;22.10;99.90
59282;DHT22;45054;52.062;10.010;2023-07-22T14:17:41;22.30;99.90
59282;DHT22;45054;52.062;10.010;2023-07-22T14:20:07;22.60;99.90
59282;DHT22;45054;52.062;10.010;2023-07-22T14:22:32;22.70;99.90
59282;DHT22;45054;52.062;10.010;2023-07-22T14:24:59;22.90;99.90
59282;DHT22;45054;52.062;10.010;2023-07-22T14:27:24;22.70;99.90
59282;DHT22;45054;52.062;10.010;2023-07-22T14:29:50;22.50;99.90
59282;DHT22;45054;52.062;10.010;2023-07-22T14:32:15;22.40;99.90
59282;DHT22;45054;52.062;10.010;2023-07-22T14:34:41;22.30;99.90
59282;DHT22;45054;52.062;10.010;2023-07-22T14:37:06;22.10;99.90
59282;DHT22;45054;52.062;10.010;2023-07-22T14:39:32;22.10;99.90
59282;DHT22;45054;52.062;10.010;2023-07-22T14:41:59;22.50;99.90
59282;DHT22;45054;52.062;10.010;2023-07-22T14:44:24;22.70;99.90
59282;DHT22;45054;52.062;10.010;2023-07-22T14:46:49;22.50;99.90
59282;DHT22;45054;52.062;10.010;2023-07-22T14:49:15;22.40;99.90
59282;DHT22;45054;52.062;10.010;2023-07-22T14:51:40;22.50;99.90
59282;DHT22;45054;52.062;10.010;2023-07-22T14:54:06;22.70;99.90
59282;DHT22;45054;52.062;10.010;2023-07-22T14:56:31;22.70;99.90
59282;DHT22;45054;52.062;10.010;2023-07-22T14:58:58;22.70;99.90
59282;DHT22;45054;52.062;10.010;2023-07-22T15:01:24;23.00;99.90
59282;DHT22;45054;52.062;10.010;2023-07-22T15:03:49;23.00;99.90
59282;DHT22;45054;52.062;10.010;2023-07-22T15:06:14;23.10;99.90